createdAt,value
2022-08-19T00:02:02.598Z,99908.22
2022-08-19T00:04:33.980Z,99909.03
2022-08-19T00:07:01.167Z,99912.81
2022-08-19T00:09:29.796Z,99923.78
2022-08-19T00:11:57.778Z,99924.37
2022-08-19T00:14:26.315Z,99916.25
2022-08-19T00:16:55.348Z,99916.53
2022-08-19T00:19:23.828Z,99921.47
2022-08-19T00:21:51.354Z,99918.31
2022-08-19T00:24:18.256Z,99910.19
2022-08-19T00:26:46.618Z,99908.63
2022-08-19T00:29:16.162Z,99916.03
2022-08-19T00:31:44.139Z,99911.84
2022-08-19T00:34:13.062Z,99918.41
2022-08-19T00:36:41.560Z,99910.94
2022-08-19T00:39:09.467Z,99908.28
2022-08-19T00:41:36.950Z,99913.97
2022-08-19T00:44:14.636Z,99916.66
2022-08-19T00:46:44.414Z,99917.19
2022-08-19T00:49:15.716Z,99911.53
2022-08-19T00:51:45.827Z,99912.78
2022-08-19T00:54:12.945Z,99909.84
2022-08-19T00:56:40.095Z,99912.78
2022-08-19T00:59:10.421Z,99903.81
2022-08-19T01:01:45.232Z,99900.50
2022-08-19T01:04:13.158Z,99900.88
2022-08-19T01:06:44.524Z,99894.47
2022-08-19T01:09:12.766Z,99895.31
2022-08-19T01:11:44.873Z,99899.88
2022-08-19T01:14:13.143Z,99901.00
2022-08-19T01:16:41.632Z,99891.25
2022-08-19T01:19:21.966Z,99890.91
2022-08-19T01:21:56.720Z,99883.41
2022-08-19T01:24:23.753Z,99891.28
2022-08-19T01:26:50.793Z,99891.69
2022-08-19T01:29:17.885Z,99903.91
2022-08-19T01:31:44.829Z,99900.09
2022-08-19T01:34:11.788Z,99892.56
2022-08-19T01:36:48.115Z,99894.56
2022-08-19T01:39:20.296Z,99887.06
2022-08-19T01:41:48.924Z,99889.75
2022-08-19T01:44:19.114Z,99892.47
2022-08-19T01:46:49.478Z,99887.53
2022-08-19T01:49:19.633Z,99888.66
2022-08-19T01:51:46.915Z,99886.47
2022-08-19T01:54:23.204Z,99883.25
2022-08-19T01:57:05.273Z,99876.56
2022-08-19T01:59:37.575Z,99870.28
2022-08-19T02:02:08.686Z,99873.38
2022-08-19T02:04:36.869Z,99870.28
2022-08-19T02:07:07.038Z,99859.09
2022-08-19T02:09:35.144Z,99852.72
2022-08-19T02:12:02.040Z,99849.75
2022-08-19T02:14:28.819Z,99859.47
2022-08-19T02:16:55.670Z,99854.28
2022-08-19T02:19:22.536Z,99855.75
2022-08-19T02:21:49.307Z,99852.31
2022-08-19T02:24:16.319Z,99849.72
2022-08-19T02:26:43.166Z,99852.16
2022-08-19T02:29:10.140Z,99854.25
2022-08-19T02:31:37.334Z,99861.50
2022-08-19T02:34:04.351Z,99859.84
2022-08-19T02:36:31.687Z,99861.81
2022-08-19T02:38:58.549Z,99855.41
2022-08-19T02:41:28.424Z,99843.84
2022-08-19T02:44:26.477Z,99856.28
2022-08-19T02:46:47.628Z,99867.91
2022-08-19T02:49:17.556Z,99865.97
2022-08-19T02:51:46.982Z,99873.56
2022-08-19T02:54:14.729Z,99864.25
2022-08-19T02:56:43.981Z,99869.13
2022-08-19T02:59:11.282Z,99871.22
2022-08-19T03:01:41.692Z,99879.94
2022-08-19T03:04:12.451Z,99871.56
2022-08-19T03:06:41.034Z,99892.84
2022-08-19T03:09:08.195Z,99896.53
2022-08-19T03:11:35.037Z,99899.38
2022-08-19T03:14:02.628Z,99909.72
2022-08-19T03:16:33.957Z,99910.22
2022-08-19T03:19:02.526Z,99899.19
2022-08-19T03:21:34.315Z,99906.78
2022-08-19T03:24:04.479Z,99911.56
2022-08-19T03:26:31.850Z,99903.69
2022-08-19T03:28:59.178Z,99909.81
2022-08-19T03:31:44.050Z,99912.66
2022-08-19T03:34:19.170Z,99918.16
2022-08-19T03:36:47.108Z,99926.50
2022-08-19T03:39:15.093Z,99924.03
2022-08-19T03:41:45.291Z,99923.03
2022-08-19T03:44:17.794Z,99919.13
2022-08-19T03:46:53.935Z,99927.19
2022-08-19T03:49:21.888Z,99923.88
2022-08-19T03:51:57.482Z,99915.84
2022-08-19T03:54:26.157Z,99920.03
2022-08-19T03:56:55.827Z,99912.69
2022-08-19T03:59:33.805Z,99920.44
2022-08-19T04:02:09.438Z,99924.16
2022-08-19T04:04:38.463Z,99911.22
2022-08-19T04:07:05.595Z,99917.69
2022-08-19T04:09:35.044Z,99913.28
2022-08-19T04:12:01.881Z,99914.25
2022-08-19T04:14:33.106Z,99919.34
2022-08-19T04:17:01.306Z,99932.28
2022-08-19T04:19:30.866Z,99934.50
2022-08-19T04:21:58.321Z,99946.28
2022-08-19T04:24:25.294Z,99940.03
2022-08-19T04:26:52.644Z,99936.34
2022-08-19T04:29:25.686Z,99931.16
2022-08-19T04:31:54.603Z,99945.06
2022-08-19T04:34:24.379Z,99949.50
2022-08-19T04:36:53.020Z,99949.78
2022-08-19T04:39:45.938Z,99952.25
2022-08-19T04:42:31.983Z,99945.31
2022-08-19T04:44:59.680Z,99949.25
2022-08-19T04:47:48.335Z,99946.72
2022-08-19T04:50:14.221Z,99950.69
2022-08-19T04:52:43.861Z,99948.19
2022-08-19T04:55:12.272Z,99950.31
2022-08-19T04:57:41.541Z,99945.13
2022-08-19T05:00:10.838Z,99953.88
2022-08-19T05:02:38.804Z,99956.44
2022-08-19T05:05:07.594Z,99950.44
2022-08-19T05:07:35.167Z,99951.94
2022-08-19T05:10:02.724Z,99949.38
2022-08-19T05:12:29.937Z,99948.91
2022-08-19T05:14:58.496Z,99951.62
2022-08-19T05:17:32.359Z,99950.25
2022-08-19T05:20:20.879Z,99944.00
2022-08-19T05:22:48.597Z,99942.53
2022-08-19T05:25:22.038Z,99943.88
2022-08-19T05:27:49.361Z,99944.62
2022-08-19T05:30:17.146Z,99945.91
2022-08-19T05:32:44.096Z,99951.81
2022-08-19T05:35:12.284Z,99954.28
2022-08-19T05:37:41.451Z,99960.44
2022-08-19T05:40:10.335Z,99955.75
2022-08-19T05:42:37.583Z,99954.00
2022-08-19T05:45:05.488Z,99958.94
2022-08-19T05:47:33.248Z,99950.78
2022-08-19T05:50:05.072Z,99950.53
2022-08-19T05:52:33.488Z,99953.50
2022-08-19T05:55:00.459Z,99965.94
2022-08-19T05:57:29.957Z,99959.84
2022-08-19T05:59:59.215Z,99964.09
2022-08-19T06:02:32.157Z,99953.75
2022-08-19T06:04:59.211Z,99957.00
2022-08-19T06:07:26.616Z,99961.63
2022-08-19T06:10:00.307Z,99965.31
2022-08-19T06:12:35.121Z,99973.25
2022-08-19T06:15:09.169Z,99966.31
2022-08-19T06:17:36.344Z,99970.22
2022-08-19T06:20:08.333Z,99964.59
2022-08-19T06:22:45.046Z,99974.19
2022-08-19T06:25:13.703Z,99955.50
2022-08-19T06:27:58.544Z,99973.53
2022-08-19T06:30:28.709Z,99964.34
2022-08-19T06:32:55.521Z,99970.97
2022-08-19T06:35:22.502Z,99976.56
2022-08-19T06:37:49.332Z,99974.03
2022-08-19T06:40:16.201Z,99964.91
2022-08-19T06:42:44.440Z,99972.66
2022-08-19T06:45:24.883Z,99968.00
2022-08-19T06:48:00.023Z,99962.16
2022-08-19T06:50:28.420Z,99969.31
2022-08-19T06:52:55.560Z,99956.28
2022-08-19T06:55:22.835Z,99957.75
2022-08-19T06:57:54.523Z,99960.16
2022-08-19T07:00:22.104Z,99957.13
2022-08-19T07:02:55.820Z,99953.19
2022-08-19T07:05:26.253Z,99957.88
2022-08-19T07:07:53.139Z,99961.28
2022-08-19T07:10:20.292Z,99950.56
2022-08-19T07:12:47.634Z,99949.75
2022-08-19T07:15:31.619Z,99946.56
2022-08-19T07:17:58.555Z,99945.72
2022-08-19T07:20:28.479Z,99953.44
2022-08-19T07:22:56.434Z,99965.13
2022-08-19T07:25:32.121Z,99957.66
2022-08-19T07:28:01.531Z,99958.75
2022-08-19T07:30:28.736Z,99971.72
2022-08-19T07:32:57.269Z,99957.97
2022-08-19T07:35:24.599Z,99960.25
2022-08-19T07:37:51.494Z,99954.44
2022-08-19T07:40:21.066Z,99958.94
2022-08-19T07:42:47.950Z,99955.59
2022-08-19T07:45:14.794Z,99947.66
2022-08-19T07:47:49.489Z,99954.09
2022-08-19T07:50:20.985Z,99954.38
2022-08-19T07:52:50.581Z,99957.88
2022-08-19T07:55:42.442Z,99957.22
2022-08-19T07:58:09.197Z,99958.09
2022-08-19T08:00:36.934Z,99958.75
2022-08-19T08:03:03.867Z,99959.47
2022-08-19T08:05:49.622Z,99955.91
2022-08-19T08:08:34.970Z,99958.03
2022-08-19T08:11:02.458Z,99952.88
2022-08-19T08:13:36.321Z,99957.72
2022-08-19T08:16:06.292Z,99951.91
2022-08-19T08:18:42.504Z,99943.00
2022-08-19T08:21:09.924Z,99942.22
2022-08-19T08:23:37.100Z,99939.28
2022-08-19T08:26:06.712Z,99945.44
2022-08-19T08:28:39.561Z,99940.66
2022-08-19T08:31:09.633Z,99943.25
2022-08-19T08:33:36.636Z,99952.84
2022-08-19T08:36:07.711Z,99957.50
2022-08-19T08:38:39.774Z,99955.09
2022-08-19T08:41:20.707Z,99955.59
2022-08-19T08:43:53.059Z,99951.97
2022-08-19T08:46:32.242Z,99955.22
2022-08-19T08:49:13.048Z,99951.66
2022-08-19T08:51:48.413Z,99961.63
2022-08-19T08:54:48.905Z,99959.00
2022-08-19T08:57:30.556Z,99955.25
2022-08-19T09:00:15.211Z,99948.25
2022-08-19T09:03:02.966Z,99946.69
2022-08-19T09:05:50.941Z,99943.50
2022-08-19T09:08:34.383Z,99928.47
2022-08-19T09:11:07.024Z,99914.38
2022-08-19T09:13:41.387Z,99910.16
2022-08-19T09:16:15.679Z,99901.19
2022-08-19T09:18:48.149Z,99912.09
2022-08-19T09:21:16.606Z,99919.34
2022-08-19T09:23:45.397Z,99915.31
2022-08-19T09:26:16.474Z,99905.56
2022-08-19T09:28:48.291Z,99901.69
2022-08-19T09:31:19.578Z,99901.75
2022-08-19T09:33:48.180Z,99893.94
2022-08-19T09:36:24.320Z,99897.84
2022-08-19T09:39:01.204Z,99900.38
2022-08-19T09:41:29.132Z,99881.84
2022-08-19T09:43:58.977Z,99889.06
2022-08-19T09:46:30.037Z,99892.84
2022-08-19T09:49:06.078Z,99887.53
2022-08-19T09:51:34.027Z,99895.69
2022-08-19T09:54:06.176Z,99891.66
2022-08-19T09:56:33.936Z,99887.09
2022-08-19T09:59:03.181Z,99883.12
2022-08-19T10:01:31.945Z,99867.72
2022-08-19T10:04:00.526Z,99870.28
2022-08-19T10:06:44.062Z,99859.84
2022-08-19T10:09:15.893Z,99848.69
2022-08-19T10:11:51.153Z,99845.91
2022-08-19T10:14:23.564Z,99840.22
2022-08-19T10:16:52.782Z,99841.94
2022-08-19T10:19:25.887Z,99835.84
2022-08-19T10:21:55.797Z,99833.94
2022-08-19T10:24:28.750Z,99837.16
2022-08-19T10:26:58.840Z,99838.31
2022-08-19T10:29:31.912Z,99850.13
2022-08-19T10:32:09.513Z,99847.09
2022-08-19T10:34:48.243Z,99845.72
2022-08-19T10:37:29.199Z,99839.94
2022-08-19T10:39:58.768Z,99839.91
2022-08-19T10:42:25.800Z,99831.84
2022-08-19T10:44:52.820Z,99829.34
2022-08-19T10:47:25.469Z,99833.94
2022-08-19T10:50:14.272Z,99827.72
2022-08-19T10:52:50.201Z,99832.66
2022-08-19T10:55:39.341Z,99811.84
2022-08-19T10:58:14.494Z,99826.22
2022-08-19T11:00:41.729Z,99824.81
2022-08-19T11:03:09.478Z,99820.16
2022-08-19T11:05:39.856Z,99824.63
2022-08-19T11:08:23.061Z,99831.78
2022-08-19T11:11:00.275Z,99814.53
2022-08-19T11:13:29.504Z,99812.69
2022-08-19T11:16:12.994Z,99816.72
2022-08-19T11:18:50.201Z,99820.03
2022-08-19T11:21:21.135Z,99815.03
2022-08-19T11:23:50.256Z,99810.84
2022-08-19T11:26:22.772Z,99807.97
2022-08-19T11:28:54.863Z,99802.53
2022-08-19T11:31:28.879Z,99809.59
2022-08-19T11:34:02.653Z,99808.06
2022-08-19T11:36:29.883Z,99797.69
2022-08-19T11:38:56.906Z,99805.41
2022-08-19T11:41:24.484Z,99804.13
2022-08-19T11:43:55.308Z,99806.53
2022-08-19T11:46:26.447Z,99802.09
2022-08-19T11:48:53.579Z,99799.56
2022-08-19T11:51:23.403Z,99807.34
2022-08-19T11:53:51.402Z,99810.03
2022-08-19T11:56:25.168Z,99788.25
2022-08-19T11:58:53.251Z,99793.03
2022-08-19T12:01:22.245Z,99792.47
2022-08-19T12:03:51.132Z,99793.44
2022-08-19T12:06:24.990Z,99785.66
2022-08-19T12:08:51.906Z,99778.06
2022-08-19T12:11:19.524Z,99778.56
2022-08-19T12:13:47.230Z,99781.91
2022-08-19T12:16:26.538Z,99768.19
2022-08-19T12:18:53.762Z,99764.72
2022-08-19T12:21:31.385Z,99764.16
2022-08-19T12:24:00.296Z,99758.66
2022-08-19T12:26:29.277Z,99764.81
2022-08-19T12:28:56.474Z,99760.47
2022-08-19T12:31:23.341Z,99749.16
2022-08-19T12:33:50.188Z,99759.56
2022-08-19T12:36:18.495Z,99766.31
2022-08-19T12:38:46.107Z,99770.81
2022-08-19T12:41:15.517Z,99769.16
2022-08-19T12:43:42.909Z,99783.16
2022-08-19T12:46:11.500Z,99776.12
2022-08-19T12:48:40.297Z,99790.16
2022-08-19T12:51:11.188Z,99766.41
2022-08-19T12:53:39.026Z,99766.88
2022-08-19T12:56:12.166Z,99766.91
2022-08-19T12:58:40.272Z,99769.41
2022-08-19T13:01:22.005Z,99749.28
2022-08-19T13:03:51.058Z,99753.41
2022-08-19T13:06:18.999Z,99747.53
2022-08-19T13:08:46.653Z,99737.31
2022-08-19T13:11:18.842Z,99731.97
2022-08-19T13:13:48.393Z,99723.97
2022-08-19T13:16:16.106Z,99732.72
2022-08-19T13:18:44.942Z,99730.94
2022-08-19T13:21:14.053Z,99728.84
2022-08-19T13:23:42.042Z,99732.03
2022-08-19T13:26:10.090Z,99730.66
2022-08-19T13:28:55.578Z,99728.59
2022-08-19T13:31:43.496Z,99729.44
2022-08-19T13:34:17.581Z,99728.16
2022-08-19T13:36:44.837Z,99726.13
2022-08-19T13:39:12.533Z,99722.03
2022-08-19T13:41:48.909Z,99713.41
2022-08-19T13:44:19.630Z,99710.53
2022-08-19T13:46:49.562Z,99719.03
2022-08-19T13:49:21.663Z,99711.72
2022-08-19T13:51:48.621Z,99706.38
2022-08-19T13:54:15.526Z,99693.06
2022-08-19T13:56:45.516Z,99710.63
2022-08-19T13:59:13.097Z,99712.69
2022-08-19T14:01:40.538Z,99719.56
2022-08-19T14:04:07.467Z,99715.31
2022-08-19T14:06:34.857Z,99720.66
2022-08-19T14:09:03.115Z,99704.97
2022-08-19T14:11:30.826Z,99696.31
2022-08-19T14:13:57.717Z,99697.97
2022-08-19T14:16:25.568Z,99698.09
2022-08-19T14:18:52.609Z,99699.88
2022-08-19T14:21:23.521Z,99690.47
2022-08-19T14:23:50.862Z,99696.91
2022-08-19T14:26:19.732Z,99708.88
2022-08-19T14:28:46.918Z,99706.38
2022-08-19T14:31:19.360Z,99695.22
2022-08-19T14:33:48.084Z,99695.31
2022-08-19T14:36:15.130Z,99696.94
2022-08-19T14:38:42.127Z,99697.28
2022-08-19T14:41:10.347Z,99697.84
2022-08-19T14:43:37.881Z,99702.06
2022-08-19T14:46:05.069Z,99718.47
2022-08-19T14:48:32.006Z,99727.00
2022-08-19T14:50:58.947Z,99729.69
2022-08-19T14:53:26.701Z,99728.34
2022-08-19T14:55:53.555Z,99730.06
2022-08-19T14:58:28.888Z,99728.75
2022-08-19T15:00:59.922Z,99724.88
2022-08-19T15:03:27.142Z,99729.78
2022-08-19T15:05:54.190Z,99717.75
2022-08-19T15:08:22.668Z,99728.41
2022-08-19T15:10:49.807Z,99732.75
2022-08-19T15:13:16.911Z,99734.09
2022-08-19T15:15:43.782Z,99753.53
2022-08-19T15:18:12.553Z,99750.44
2022-08-19T15:20:40.449Z,99764.34
2022-08-19T15:23:08.936Z,99770.28
2022-08-19T15:25:35.776Z,99772.44
2022-08-19T15:28:02.799Z,99785.75
2022-08-19T15:30:30.061Z,99784.19
2022-08-19T15:32:59.106Z,99792.78
2022-08-19T15:35:26.868Z,99791.06
2022-08-19T15:37:54.555Z,99798.16
2022-08-19T15:40:22.558Z,99797.75
2022-08-19T15:42:50.039Z,99812.28
2022-08-19T15:45:19.643Z,99819.72
2022-08-19T15:47:46.653Z,99830.94
2022-08-19T15:50:17.563Z,99836.22
2022-08-19T15:52:49.716Z,99832.16
2022-08-19T15:55:32.594Z,99823.13
2022-08-19T15:58:37.495Z,99814.53
2022-08-19T16:01:27.129Z,99801.16
2022-08-19T16:04:15.891Z,99801.31
2022-08-19T16:06:53.750Z,99768.84
2022-08-19T16:09:27.344Z,99760.19
2022-08-19T16:12:02.042Z,99737.44
2022-08-19T16:14:31.173Z,99735.13
2022-08-19T16:16:58.126Z,99751.88
2022-08-19T16:19:25.781Z,99754.97
2022-08-19T16:21:55.357Z,99754.94
2022-08-19T16:24:25.543Z,99752.97
2022-08-19T16:26:52.753Z,99742.56
2022-08-19T16:29:34.445Z,99739.38
2022-08-19T16:32:10.352Z,99733.25
2022-08-19T16:34:40.180Z,99736.34
2022-08-19T16:37:07.289Z,99739.22
2022-08-19T16:39:34.294Z,99743.13
2022-08-19T16:42:01.220Z,99740.22
2022-08-19T16:44:29.736Z,99764.75
2022-08-19T16:46:59.667Z,99772.53
2022-08-19T16:49:53.123Z,99790.50
2022-08-19T16:52:19.228Z,99796.50
2022-08-19T16:54:47.129Z,99782.47
2022-08-19T16:57:14.291Z,99803.87
2022-08-19T16:59:48.116Z,99827.53
2022-08-19T17:02:15.595Z,99834.22
2022-08-19T17:04:42.511Z,99855.47
2022-08-19T17:07:10.384Z,99869.34
2022-08-19T17:09:38.018Z,99863.00
2022-08-19T17:12:05.690Z,99863.69
2022-08-19T17:14:32.555Z,99875.34
2022-08-19T17:16:59.393Z,99889.16
2022-08-19T17:19:28.429Z,99910.63
2022-08-19T17:21:57.844Z,99928.94
2022-08-19T17:24:24.734Z,99937.94
2022-08-19T17:26:51.558Z,99937.78
2022-08-19T17:29:18.633Z,99928.53
2022-08-19T17:31:45.771Z,99909.22
2022-08-19T17:34:12.667Z,99907.66
2022-08-19T17:36:39.606Z,99897.56
2022-08-19T17:39:06.538Z,99882.31
2022-08-19T17:41:34.456Z,99856.94
2022-08-19T17:44:02.826Z,99849.66
2022-08-19T17:46:30.607Z,99826.75
2022-08-19T17:49:00.891Z,99825.72
2022-08-19T17:51:34.121Z,99809.78
2022-08-19T17:54:04.387Z,99814.75
2022-08-19T17:56:31.209Z,99808.72
2022-08-19T17:59:00.380Z,99804.59
2022-08-19T18:01:49.298Z,99806.59
2022-08-19T18:04:25.324Z,99801.50
2022-08-19T18:06:56.018Z,99790.50
2022-08-19T18:09:41.847Z,99773.22
2022-08-19T18:12:14.234Z,99763.22
2022-08-19T18:14:42.926Z,99774.84
2022-08-19T18:17:12.851Z,99784.03
2022-08-19T18:19:43.315Z,99772.97
2022-08-19T18:22:13.455Z,99761.00
2022-08-19T18:24:41.769Z,99761.31
2022-08-19T18:27:10.228Z,99765.97
2022-08-19T18:29:38.537Z,99767.66
2022-08-19T18:32:12.720Z,99770.91
2022-08-19T18:34:41.724Z,99773.22
2022-08-19T18:37:08.987Z,99790.50
2022-08-19T18:39:55.113Z,99798.41
2022-08-19T18:42:40.758Z,99816.78
2022-08-19T18:45:26.913Z,99857.16
2022-08-19T18:48:26.933Z,99902.03
2022-08-19T18:50:59.538Z,99908.97
2022-08-19T18:53:28.992Z,99904.38
2022-08-19T18:55:56.531Z,99938.75
2022-08-19T18:58:34.194Z,99975.75
2022-08-19T19:01:17.753Z,100002.94
2022-08-19T19:03:50.705Z,100003.37
2022-08-19T19:06:29.892Z,100012.31
2022-08-19T19:08:58.008Z,99993.63
2022-08-19T19:11:28.972Z,100003.37
2022-08-19T19:13:58.719Z,100028.91
2022-08-19T19:16:29.912Z,100022.59
2022-08-19T19:18:57.249Z,100021.56
2022-08-19T19:21:25.929Z,100016.44
2022-08-19T19:23:56.844Z,100003.53
2022-08-19T19:26:23.852Z,100007.56
2022-08-19T19:28:51.529Z,100002.13
2022-08-19T19:31:26.602Z,99994.13
2022-08-19T19:33:55.859Z,99981.50
2022-08-19T19:36:24.019Z,99976.78
2022-08-19T19:38:51.140Z,99975.38
2022-08-19T19:41:26.689Z,99968.75
2022-08-19T19:44:16.344Z,99952.12
2022-08-19T19:46:44.053Z,99936.06
2022-08-19T19:49:11.763Z,99939.91
2022-08-19T19:51:39.523Z,99932.63
2022-08-19T19:54:13.614Z,99934.47
2022-08-19T19:56:43.527Z,99948.50
2022-08-19T19:59:10.794Z,99939.44
2022-08-19T20:01:37.993Z,99936.12
2022-08-19T20:04:05.436Z,99929.22
2022-08-19T20:06:32.384Z,99920.22
2022-08-19T20:09:10.378Z,99924.09
2022-08-19T20:11:53.480Z,99910.69
2022-08-19T20:14:22.364Z,99925.06
2022-08-19T20:16:50.727Z,99936.94
2022-08-19T20:19:21.432Z,99944.47
2022-08-19T20:21:51.371Z,99964.50
2022-08-19T20:24:23.621Z,99950.13
2022-08-19T20:26:53.532Z,99940.09
2022-08-19T20:29:38.515Z,99926.75
2022-08-19T20:32:07.775Z,99937.22
2022-08-19T20:34:34.689Z,99966.78
2022-08-19T20:37:02.031Z,100031.72
2022-08-19T20:39:28.902Z,100146.56
2022-08-19T20:41:56.568Z,100126.47
2022-08-19T20:44:25.500Z,100141.66
2022-08-19T20:46:54.259Z,100154.44
2022-08-19T20:49:21.761Z,100168.03
2022-08-19T20:51:49.004Z,100207.31
2022-08-19T20:54:16.147Z,100183.25
2022-08-19T20:56:42.943Z,100193.03
2022-08-19T20:59:10.621Z,100218.53
2022-08-19T21:01:37.582Z,100226.25
2022-08-19T21:04:04.740Z,100226.03
2022-08-19T21:06:33.823Z,100228.97
2022-08-19T21:09:01.159Z,100197.44
2022-08-19T21:11:29.417Z,100173.88
2022-08-19T21:13:57.032Z,100188.09
2022-08-19T21:16:26.861Z,100191.38
2022-08-19T21:18:53.688Z,100177.72
2022-08-19T21:21:20.532Z,100186.66
2022-08-19T21:23:47.395Z,100178.09
2022-08-19T21:26:14.296Z,100176.25
2022-08-19T21:28:41.353Z,100164.06
2022-08-19T21:31:10.489Z,100147.00
2022-08-19T21:33:38.664Z,100149.94
2022-08-19T21:36:06.521Z,100145.50
2022-08-19T21:38:33.761Z,100124.50
2022-08-19T21:41:05.961Z,100117.69
2022-08-19T21:43:35.371Z,100096.94
2022-08-19T21:46:02.219Z,100083.28
2022-08-19T21:48:29.034Z,100059.12
2022-08-19T21:50:56.043Z,100048.66
2022-08-19T21:53:23.148Z,100045.50
2022-08-19T21:55:53.477Z,100039.16
2022-08-19T21:58:28.221Z,100032.03
2022-08-19T22:00:59.583Z,100031.56
2022-08-19T22:03:27.371Z,100031.62
2022-08-19T22:05:54.245Z,100033.41
2022-08-19T22:08:21.135Z,100028.69
2022-08-19T22:10:49.751Z,100031.19
2022-08-19T22:13:21.314Z,100011.09
2022-08-19T22:15:50.424Z,100024.22
2022-08-19T22:18:17.798Z,100013.16
2022-08-19T22:20:45.416Z,99997.91
2022-08-19T22:23:12.222Z,100002.63
2022-08-19T22:25:44.203Z,100000.69
2022-08-19T22:28:13.408Z,99998.34
2022-08-19T22:30:42.996Z,99988.06
2022-08-19T22:33:13.289Z,99980.09
2022-08-19T22:35:41.737Z,99987.97
2022-08-19T22:38:10.949Z,99983.38
2022-08-19T22:40:41.244Z,99970.25
2022-08-19T22:43:15.205Z,99968.75
2022-08-19T22:45:43.835Z,99956.19
2022-08-19T22:48:13.874Z,99927.59
2022-08-19T22:50:42.865Z,99904.00
2022-08-19T22:53:10.809Z,99902.75
2022-08-19T22:55:39.012Z,99906.09
2022-08-19T22:58:05.991Z,99907.19
2022-08-19T23:03:01.639Z,99907.09
2022-08-19T23:05:29.760Z,99885.13
2022-08-19T23:07:58.288Z,99881.09
2022-08-19T23:10:28.987Z,99872.34
2022-08-19T23:12:59.826Z,99881.97
2022-08-19T23:15:30.483Z,99878.28
2022-08-19T23:18:00.380Z,99859.94
2022-08-19T23:20:31.536Z,99864.87
2022-08-19T23:22:58.823Z,99864.16
2022-08-19T23:25:28.301Z,99856.81
2022-08-19T23:28:14.519Z,99857.78
2022-08-19T23:30:45.134Z,99862.19
2022-08-19T23:33:50.880Z,99868.47
2022-08-19T23:36:17.310Z,99867.91
2022-08-19T23:38:46.553Z,99877.31
2022-08-19T23:41:14.955Z,99871.25
2022-08-19T23:43:42.931Z,99870.72
2022-08-19T23:46:12.745Z,99893.03
2022-08-19T23:48:40.493Z,99895.84
2022-08-19T23:51:10.457Z,99906.12
2022-08-19T23:53:39.912Z,99895.63
2022-08-19T23:56:08.572Z,99891.53
2022-08-19T23:58:37.491Z,99901.03
